New Pittsburgh, Ohio
Current Conditions -  °F | °C
As of 11:52 AM on Saturday 22 Nov 2014 (Local Time) from KMFD Reporting Station
Overcast Overcast  
Wind Chill: 32°   Ceiling: 4400
Heat Index: 41°   Visibility: 10mi
Dew Point: 38°   Wind: 17mph
Humidity: 89%   Direction: 200°SSW
Pressure: 30.15"   Gusts: 25mph
Location:  40.9918°N, 82.6827°W
Report Text: KMFD 221652Z 20015G22KT 10SM OVC044 05/03 A3015 RMK AO2 PK WND 20026/1621 RAE35 SLP222 P0000 T00500033
Loading
Personal Weather Stations






























Interactive Weather Map New forecast layout! Learn more

10-Day Weather Forecast

Advertisements
Track Severe Weather on mobile